Time,TemperatureF,DewpointF,PressureIn,WindDirection,WindDirectionDegrees,WindSpeedMPH,WindSpeedGustMPH,Humidity,HourlyPrecipIn,Conditions,Clouds,dailyrainin,SoftwareType,DateUTC
2013-04-24 00:01:00,49.7,39.2,30.28,ENE,68,1.3,5.1,67,0.00,,,0.00,WUHU216HW,2013-04-24 07:01:00,
2013-04-24 00:06:00,49.7,39.2,30.28,North,0,1.6,5.1,67,0.00,,,0.00,WUHU216HW,2013-04-24 07:06:00,
2013-04-24 00:11:00,49.5,39.0,30.28,NNE,23,5.4,5.4,67,0.00,,,0.00,WUHU216HW,2013-04-24 07:11:00,
2013-04-24 00:16:00,49.5,39.0,30.28,NE,45,3.4,6.5,67,0.00,,,0.00,WUHU216HW,2013-04-24 07:16:00,
2013-04-24 00:21:00,49.5,39.0,30.28,North,0,0.2,6.5,67,0.00,,,0.00,WUHU216HW,2013-04-24 07:21:00,
2013-04-24 00:26:00,49.5,39.0,30.28,NE,45,1.6,3.8,67,0.00,,,0.00,WUHU216HW,2013-04-24 07:26:00,
2013-04-24 00:31:00,49.3,39.2,30.28,NE,45,2.5,3.6,68,0.00,,,0.00,WUHU216HW,2013-04-24 07:31:00,
2013-04-24 00:36:00,49.1,39.0,30.28,NE,45,3.4,4.9,68,0.00,,,0.00,WUHU216HW,2013-04-24 07:36:00,
2013-04-24 00:41:00,49.1,39.4,30.28,North,0,3.4,4.9,69,0.00,,,0.00,WUHU216HW,2013-04-24 07:41:00,
2013-04-24 00:46:00,49.0,39.6,30.28,NNE,23,5.4,5.4,70,0.00,,,0.00,WUHU216HW,2013-04-24 07:46:00,
2013-04-24 00:51:00,49.0,39.6,30.28,ENE,68,1.3,5.4,70,0.00,,,0.00,WUHU216HW,2013-04-24 07:51:00,
2013-04-24 00:56:00,49.0,39.3,30.28,NE,45,1.8,5.4,69,0.00,,,0.00,WUHU216HW,2013-04-24 07:56:00,
2013-04-24 01:01:00,48.8,39.4,30.28,North,0,2.7,3.4,70,0.00,,,0.00,WUHU216HW,2013-04-24 08:01:00,
2013-04-24 01:06:00,48.8,39.4,30.28,ENE,68,0.4,2.7,70,0.00,,,0.00,WUHU216HW,2013-04-24 08:06:00,
2013-04-24 01:11:00,48.6,39.2,30.28,ENE,68,0.0,2.7,70,0.00,,,0.00,WUHU216HW,2013-04-24 08:11:00,
2013-04-24 01:16:00,48.6,38.9,30.28,NE,45,0.4,1.6,69,0.00,,,0.00,WUHU216HW,2013-04-24 08:16:00,
2013-04-24 01:21:00,48.4,38.7,30.28,North,0,0.4,1.6,69,0.00,,,0.00,WUHU216HW,2013-04-24 08:21:00,
2013-04-24 01:26:00,48.1,38.7,30.28,North,0,0.0,1.1,70,0.00,,,0.00,WUHU216HW,2013-04-24 08:26:00,
2013-04-24 01:31:00,47.9,38.5,30.28,WNW,293,0.2,1.1,70,0.00,,,0.00,WUHU216HW,2013-04-24 08:31:00,
2013-04-24 01:36:00,47.7,38.4,30.28,WNW,293,0.0,0.4,70,0.00,,,0.00,WUHU216HW,2013-04-24 08:36:00,
2013-04-24 01:41:00,47.5,38.6,30.29,West,270,0.2,0.7,71,0.00,,,0.00,WUHU216HW,2013-04-24 08:41:00,
2013-04-24 01:46:00,47.2,38.3,30.28,West,270,0.7,0.7,71,0.00,,,0.00,WUHU216HW,2013-04-24 08:46:00,
2013-04-24 01:51:00,47.0,38.1,30.28,NNW,338,0.0,0.7,71,0.00,,,0.00,WUHU216HW,2013-04-24 08:51:00,
2013-04-24 01:56:00,46.8,38.3,30.28,North,0,0.0,0.7,72,0.00,,,0.00,WUHU216HW,2013-04-24 08:56:00,
2013-04-24 02:01:00,46.4,38.0,30.28,NW,315,0.4,0.4,72,0.00,,,0.00,WUHU216HW,2013-04-24 09:01:00,
2013-04-24 02:06:00,46.4,38.0,30.28,North,0,0.0,1.1,72,0.00,,,0.00,WUHU216HW,2013-04-24 09:06:00,
2013-04-24 02:11:00,46.4,38.0,30.28,NE,45,1.3,1.8,72,0.00,,,0.00,WUHU216HW,2013-04-24 09:11:00,
2013-04-24 02:16:00,46.6,38.4,30.28,ENE,68,0.4,1.8,73,0.00,,,0.00,WUHU216HW,2013-04-24 09:16:00,
2013-04-24 02:21:00,46.6,38.4,30.28,ESE,113,0.0,1.3,73,0.00,,,0.00,WUHU216HW,2013-04-24 09:21:00,
2013-04-24 02:26:00,46.8,38.6,30.28,ESE,113,0.2,1.1,73,0.00,,,0.00,WUHU216HW,2013-04-24 09:26:00,
2013-04-24 02:31:00,46.6,38.4,30.28,NE,45,0.0,1.1,73,0.00,,,0.00,WUHU216HW,2013-04-24 09:31:00,
2013-04-24 02:36:00,46.4,38.3,30.28,ESE,113,0.4,0.9,73,0.00,,,0.00,WUHU216HW,2013-04-24 09:36:00,
2013-04-24 02:41:00,46.4,38.3,30.28,East,90,0.0,0.9,73,0.00,,,0.00,WUHU216HW,2013-04-24 09:41:00,
2013-04-24 02:46:00,46.3,38.1,30.28,SSW,203,0.4,0.4,73,0.00,,,0.00,WUHU216HW,2013-04-24 09:46:00,
2013-04-24 02:51:00,45.9,37.7,30.28,WSW,248,0.4,1.8,73,0.00,,,0.00,WUHU216HW,2013-04-24 09:51:00,
2013-04-24 02:56:00,45.7,37.5,30.28,WSW,248,0.9,1.8,73,0.00,,,0.00,WUHU216HW,2013-04-24 09:56:00,
2013-04-24 03:01:00,45.4,37.5,30.28,WSW,248,1.1,1.1,74,0.00,,,0.00,WUHU216HW,2013-04-24 10:01:00,
2013-04-24 04:00:00,42.7,35.7,30.29,West,270,1.1,1.1,76,0.00,,,0.00,WUHU216HW,2013-04-24 11:00:00,
2013-04-24 04:05:00,42.3,35.3,30.29,WSW,248,1.3,1.8,76,0.00,,,0.00,WUHU216HW,2013-04-24 11:05:00,
2013-04-24 04:10:00,42.3,35.6,30.29,WSW,248,0.7,1.8,77,0.00,,,0.00,WUHU216HW,2013-04-24 11:10:00,
2013-04-24 04:15:00,42.1,35.4,30.29,WSW,248,0.7,1.3,77,0.00,,,0.00,WUHU216HW,2013-04-24 11:15:00,
2013-04-24 04:20:00,42.1,35.4,30.29,West,270,1.3,1.3,77,0.00,,,0.00,WUHU216HW,2013-04-24 11:20:00,
2013-04-24 04:25:00,41.9,35.2,30.30,WSW,248,1.3,1.8,77,0.00,,,0.00,WUHU216HW,2013-04-24 11:25:00,
2013-04-24 04:30:00,41.8,35.4,30.30,WSW,248,1.1,1.8,78,0.00,,,0.00,WUHU216HW,2013-04-24 11:30:00,
2013-04-24 04:35:00,41.6,35.2,30.30,West,270,1.1,1.8,78,0.00,,,0.00,WUHU216HW,2013-04-24 11:35:00,
2013-04-24 04:40:00,41.4,35.0,30.30,West,270,1.1,1.8,78,0.00,,,0.00,WUHU216HW,2013-04-24 11:40:00,
2013-04-24 04:45:00,41.4,35.0,30.30,WSW,248,1.3,1.8,78,0.00,,,0.00,WUHU216HW,2013-04-24 11:45:00,
2013-04-24 04:50:00,41.2,34.8,30.30,WSW,248,1.1,1.6,78,0.00,,,0.00,WUHU216HW,2013-04-24 11:50:00,
2013-04-24 04:55:00,41.0,34.9,30.30,WSW,248,1.1,1.8,79,0.00,,,0.00,WUHU216HW,2013-04-24 11:55:00,
2013-04-24 05:00:00,41.0,34.9,30.30,WSW,248,1.1,1.8,79,0.00,,,0.00,WUHU216HW,2013-04-24 12:00:00,
2013-04-24 05:05:00,40.9,34.8,30.30,West,270,1.1,1.6,79,0.00,,,0.00,WUHU216HW,2013-04-24 12:05:00,
2013-04-24 05:10:00,40.7,34.7,30.30,West,270,0.0,1.3,79,0.00,,,0.00,WUHU216HW,2013-04-24 12:10:00,
2013-04-24 05:15:00,40.7,34.7,30.29,West,270,0.0,1.1,79,0.00,,,0.00,WUHU216HW,2013-04-24 12:15:00,
2013-04-24 05:20:00,40.7,34.7,30.29,West,270,0.2,0.2,79,0.00,,,0.00,WUHU216HW,2013-04-24 12:20:00,
2013-04-24 05:25:00,40.7,34.7,30.29,West,270,0.0,0.2,79,0.00,,,0.00,WUHU216HW,2013-04-24 12:25:00,
2013-04-24 05:30:00,40.7,34.7,30.29,West,270,0.4,1.1,79,0.00,,,0.00,WUHU216HW,2013-04-24 12:30:00,
2013-04-24 05:35:00,40.7,34.7,30.29,West,270,0.4,1.1,79,0.00,,,0.00,WUHU216HW,2013-04-24 12:35:00,
2013-04-24 05:40:00,40.7,34.7,30.29,West,270,0.4,1.1,79,0.00,,,0.00,WUHU216HW,2013-04-24 12:40:00,
2013-04-24 05:45:00,40.7,34.9,30.29,West,270,0.7,0.9,80,0.00,,,0.00,WUHU216HW,2013-04-24 12:45:00,
2013-04-24 05:50:00,40.5,34.8,30.29,West,270,0.7,1.1,80,0.00,,,0.00,WUHU216HW,2013-04-24 12:50:00,
2013-04-24 05:55:00,40.5,34.8,30.29,West,270,0.4,1.1,80,0.00,,,0.00,WUHU216HW,2013-04-24 12:55:00,
2013-04-24 06:00:00,40.3,34.7,30.29,WSW,248,1.1,1.1,80,0.00,,,0.00,WUHU216HW,2013-04-24 13:00:00,
2013-04-24 06:05:00,40.1,34.5,30.29,WSW,248,0.9,1.1,80,0.00,,,0.00,WUHU216HW,2013-04-24 13:05:00,
2013-04-24 06:10:00,40.1,34.5,30.29,WSW,248,0.4,1.1,80,0.00,,,0.00,WUHU216HW,2013-04-24 13:10:00,
2013-04-24 06:15:00,40.1,34.5,30.29,WSW,248,1.1,1.1,80,0.00,,,0.00,WUHU216HW,2013-04-24 13:15:00,
2013-04-24 06:20:00,40.1,34.7,30.29,WSW,248,1.3,1.3,81,0.00,,,0.00,WUHU216HW,2013-04-24 13:20:00,
2013-04-24 06:25:00,40.3,34.9,30.30,WSW,248,2.5,2.7,81,0.00,,,0.00,WUHU216HW,2013-04-24 13:25:00,
2013-04-24 06:30:00,40.3,34.9,30.29,WSW,248,1.6,2.9,81,0.00,,,0.00,WUHU216HW,2013-04-24 13:30:00,
2013-04-24 06:35:00,40.3,34.9,30.29,WSW,248,1.1,2.9,81,0.00,,,0.00,WUHU216HW,2013-04-24 13:35:00,
2013-04-24 06:40:00,40.3,34.9,30.29,WSW,248,1.6,2.0,81,0.00,,,0.00,WUHU216HW,2013-04-24 13:40:00,
2013-04-24 06:45:00,40.5,35.1,30.29,WSW,248,1.1,1.8,81,0.00,,,0.00,WUHU216HW,2013-04-24 13:45:00,
2013-04-24 06:50:00,40.9,35.5,30.29,WSW,248,1.1,1.8,81,0.00,,,0.00,WUHU216HW,2013-04-24 13:50:00,
2013-04-24 06:55:00,41.2,36.1,30.29,WSW,248,1.1,1.3,82,0.00,,,0.00,WUHU216HW,2013-04-24 13:55:00,
2013-04-24 07:00:00,41.6,36.5,30.29,WSW,248,0.7,1.3,82,0.00,,,0.00,WUHU216HW,2013-04-24 14:00:00,
2013-04-24 07:05:00,42.5,37.4,30.29,WSW,248,0.4,1.1,82,0.00,,,0.00,WUHU216HW,2013-04-24 14:05:00,
2013-04-24 07:10:00,43.0,37.5,30.29,West,270,0.4,0.9,81,0.00,,,0.00,WUHU216HW,2013-04-24 14:10:00,
2013-04-24 07:15:00,43.4,37.9,30.29,West,270,0.2,1.1,81,0.00,,,0.00,WUHU216HW,2013-04-24 14:15:00,
2013-04-24 07:20:00,43.9,38.4,30.29,West,270,0.0,1.1,81,0.00,,,0.00,WUHU216HW,2013-04-24 14:20:00,
2013-04-24 07:25:00,44.6,39.2,30.29,West,270,0.0,0.2,81,0.00,,,0.00,WUHU216HW,2013-04-24 14:25:00,
2013-04-24 07:30:00,45.5,40.1,30.29,West,270,0.0,0.0,81,0.00,,,0.00,WUHU216HW,2013-04-24 14:30:00,
2013-04-24 07:35:00,46.4,41.0,30.29,West,270,0.0,0.0,81,0.00,,,0.00,WUHU216HW,2013-04-24 14:35:00,
2013-04-24 07:40:00,47.3,41.8,30.29,East,90,0.7,0.9,81,0.00,,,0.00,WUHU216HW,2013-04-24 14:40:00,
2013-04-24 07:45:00,47.7,41.9,30.29,ENE,68,1.1,1.3,80,0.00,,,0.00,WUHU216HW,2013-04-24 14:45:00,
2013-04-24 07:50:00,47.9,41.9,30.29,East,90,1.1,1.3,80,0.00,,,0.00,WUHU216HW,2013-04-24 14:50:00,
2013-04-24 07:55:00,48.2,42.3,30.29,NNE,23,0.4,2.5,80,0.00,,,0.00,WUHU216HW,2013-04-24 14:55:00,
2013-04-24 08:00:00,48.6,43.0,30.29,NE,45,1.1,2.9,81,0.00,,,0.00,WUHU216HW,2013-04-24 15:00:00,
2013-04-24 08:05:00,49.0,43.0,30.29,East,90,0.2,2.9,80,0.00,,,0.00,WUHU216HW,2013-04-24 15:05:00,
2013-04-24 08:10:00,49.3,43.4,30.29,ENE,68,1.1,2.5,80,0.00,,,0.00,WUHU216HW,2013-04-24 15:10:00,
2013-04-24 08:15:00,49.7,43.4,30.29,ENE,68,2.0,2.5,79,0.00,,,0.00,WUHU216HW,2013-04-24 15:15:00,
2013-04-24 08:20:00,49.9,43.6,30.29,ENE,68,2.0,2.5,79,0.00,,,0.00,WUHU216HW,2013-04-24 15:20:00,
2013-04-24 08:25:00,50.0,43.4,30.29,ENE,68,1.1,2.0,78,0.00,,,0.00,WUHU216HW,2013-04-24 15:25:00,
2013-04-24 08:30:00,50.0,43.4,30.29,NNE,23,2.5,2.5,78,0.00,,,0.00,WUHU216HW,2013-04-24 15:30:00,
2013-04-24 08:35:00,50.4,43.7,30.29,NE,45,1.8,2.7,78,0.00,,,0.00,WUHU216HW,2013-04-24 15:35:00,
2013-04-24 08:40:00,50.6,43.3,30.29,ENE,68,2.5,2.7,76,0.00,,,0.00,WUHU216HW,2013-04-24 15:40:00,
2013-04-24 08:45:00,50.8,43.5,30.29,NE,45,1.8,2.5,76,0.00,,,0.00,WUHU216HW,2013-04-24 15:45:00,
2013-04-24 08:50:00,51.3,43.7,30.29,ENE,68,2.5,2.5,75,0.00,,,0.00,WUHU216HW,2013-04-24 15:50:00,
2013-04-24 08:55:00,51.5,43.1,30.29,ENE,68,1.8,2.5,73,0.00,,,0.00,WUHU216HW,2013-04-24 15:55:00,
2013-04-24 09:00:00,51.7,43.7,30.29,ENE,68,0.9,2.5,74,0.00,,,0.00,WUHU216HW,2013-04-24 16:00:00,
2013-04-24 09:05:00,52.0,43.3,30.29,ENE,68,0.4,2.5,72,0.00,,,0.00,WUHU216HW,2013-04-24 16:05:00,
2013-04-24 09:10:00,52.6,43.8,30.29,NE,45,1.8,2.5,72,0.00,,,0.00,WUHU216HW,2013-04-24 16:10:00,
2013-04-24 09:15:00,53.1,44.3,30.28,NNE,23,2.2,2.2,72,0.00,,,0.00,WUHU216HW,2013-04-24 16:15:00,
2013-04-24 09:20:00,53.6,44.1,30.28,NNE,23,1.6,2.7,70,0.00,,,0.00,WUHU216HW,2013-04-24 16:20:00,
2013-04-24 09:25:00,54.0,44.1,30.28,East,90,2.7,2.7,69,0.00,,,0.00,WUHU216HW,2013-04-24 16:25:00,
2013-04-24 09:30:00,54.2,43.8,30.28,NNE,23,2.5,2.7,68,0.00,,,0.00,WUHU216HW,2013-04-24 16:30:00,
2013-04-24 09:35:00,54.4,44.0,30.28,East,90,2.2,2.7,68,0.00,,,0.00,WUHU216HW,2013-04-24 16:35:00,
2013-04-24 09:40:00,54.5,43.8,30.28,ESE,113,1.8,2.5,67,0.00,,,0.00,WUHU216HW,2013-04-24 16:40:00,
2013-04-24 09:45:00,54.7,43.9,30.28,ENE,68,1.3,3.1,67,0.00,,,0.00,WUHU216HW,2013-04-24 16:45:00,
2013-04-24 09:50:00,55.3,44.1,30.28,ESE,113,1.8,3.1,66,0.00,,,0.00,WUHU216HW,2013-04-24 16:50:00,
2013-04-24 09:55:00,55.4,44.3,30.28,ENE,68,2.0,2.2,66,0.00,,,0.00,WUHU216HW,2013-04-24 16:55:00,
2013-04-24 10:00:00,55.8,45.0,30.27,ENE,68,2.0,2.5,67,0.00,,,0.00,WUHU216HW,2013-04-24 17:00:00,
2013-04-24 10:05:00,56.2,44.6,30.27,SE,135,2.5,3.4,65,0.00,,,0.00,WUHU216HW,2013-04-24 17:05:00,
2013-04-24 10:10:00,56.3,44.7,30.27,NNE,23,2.5,3.4,65,0.00,,,0.00,WUHU216HW,2013-04-24 17:10:00,
2013-04-24 10:15:00,57.1,45.0,30.27,NE,45,2.5,2.7,64,0.00,,,0.00,WUHU216HW,2013-04-24 17:15:00,
2013-04-24 10:20:00,57.6,45.1,30.27,NNE,23,1.8,2.7,63,0.00,,,0.00,WUHU216HW,2013-04-24 17:20:00,
2013-04-24 10:25:00,58.1,44.8,30.27,East,90,2.0,3.4,61,0.00,,,0.00,WUHU216HW,2013-04-24 17:25:00,
2013-04-24 10:30:00,58.5,45.1,30.27,East,90,2.5,3.4,61,0.00,,,0.00,WUHU216HW,2013-04-24 17:30:00,
2013-04-24 10:35:00,58.1,44.4,30.27,ESE,113,1.6,3.4,60,0.00,,,0.00,WUHU216HW,2013-04-24 17:35:00,
2013-04-24 10:40:00,58.1,44.4,30.26,East,90,2.7,3.4,60,0.00,,,0.00,WUHU216HW,2013-04-24 17:40:00,
2013-04-24 10:45:00,58.3,44.9,30.26,ESE,113,0.9,3.6,61,0.00,,,0.00,WUHU216HW,2013-04-24 17:45:00,
2013-04-24 10:50:00,58.3,44.6,30.26,ENE,68,3.4,4.7,60,0.00,,,0.00,WUHU216HW,2013-04-24 17:50:00,
2013-04-24 10:55:00,58.7,44.8,30.26,NNE,23,2.7,4.7,60,0.00,,,0.00,WUHU216HW,2013-04-24 17:55:00,
2013-04-24 11:00:00,59.4,45.5,30.26,ENE,68,2.0,5.8,60,0.00,,,0.00,WUHU216HW,2013-04-24 18:00:00,
2013-04-24 11:05:00,60.1,44.4,30.26,ENE,68,4.7,6.5,56,0.00,,,0.00,WUHU216HW,2013-04-24 18:05:00,
2013-04-24 11:10:00,60.3,43.6,30.27,North,0,7.6,7.6,54,0.00,,,0.00,WUHU216HW,2013-04-24 18:10:00,
2013-04-24 11:15:00,60.5,42.3,30.26,North,0,6.7,7.6,51,0.00,,,0.00,WUHU216HW,2013-04-24 18:15:00,
2013-04-24 11:20:00,60.5,42.8,30.26,ENE,68,1.8,7.6,52,0.00,,,0.00,WUHU216HW,2013-04-24 18:20:00,
2013-04-24 11:25:00,60.8,43.6,30.26,ESE,113,2.7,7.4,53,0.00,,,0.00,WUHU216HW,2013-04-24 18:25:00,
2013-04-24 11:30:00,61.2,42.9,30.26,NNE,23,1.6,4.9,51,0.00,,,0.00,WUHU216HW,2013-04-24 18:30:00,
2013-04-24 11:35:00,61.4,43.1,30.26,NNE,23,1.1,5.8,51,0.00,,,0.00,WUHU216HW,2013-04-24 18:35:00,
2013-04-24 11:40:00,61.6,42.8,30.26,NW,315,2.2,5.8,50,0.00,,,0.00,WUHU216HW,2013-04-24 18:40:00,
2013-04-24 11:45:00,61.9,42.5,30.25,NE,45,4.7,5.4,49,0.00,,,0.00,WUHU216HW,2013-04-24 18:45:00,
2013-04-24 11:50:00,62.6,43.2,30.25,ENE,68,3.4,5.4,49,0.00,,,0.00,WUHU216HW,2013-04-24 18:50:00,
2013-04-24 11:55:00,63.0,44.6,30.25,NE,45,2.2,5.8,51,0.00,,,0.00,WUHU216HW,2013-04-24 18:55:00,
2013-04-24 12:00:00,63.4,43.2,30.25,NNE,23,1.8,5.8,48,0.00,,,0.00,WUHU216HW,2013-04-24 19:00:00,
2013-04-24 12:05:00,63.5,43.4,30.25,North,0,2.5,7.4,48,0.00,,,0.00,WUHU216HW,2013-04-24 19:05:00,
2013-04-24 12:10:00,63.9,42.6,30.24,East,90,3.4,7.4,46,0.00,,,0.00,WUHU216HW,2013-04-24 19:10:00,
2013-04-24 12:15:00,63.9,43.1,30.24,NE,45,4.9,7.6,47,0.00,,,0.00,WUHU216HW,2013-04-24 19:15:00,
2013-04-24 12:20:00,64.1,43.3,30.24,SSE,158,2.2,7.6,47,0.00,,,0.00,WUHU216HW,2013-04-24 19:20:00,
2013-04-24 12:25:00,64.6,43.2,30.24,North,0,2.2,6.0,46,0.00,,,0.00,WUHU216HW,2013-04-24 19:25:00,
2013-04-24 12:30:00,64.6,42.0,30.23,ESE,113,0.9,5.6,44,0.00,,,0.00,WUHU216HW,2013-04-24 19:30:00,
2013-04-24 12:35:00,64.4,42.0,30.23,ESE,113,4.7,6.9,44,0.00,,,0.00,WUHU216HW,2013-04-24 19:35:00,
2013-04-24 12:40:00,63.7,41.2,30.23,NNE,23,3.1,6.9,44,0.00,,,0.00,WUHU216HW,2013-04-24 19:40:00,
2013-04-24 12:45:00,64.1,42.8,30.22,NNW,338,2.2,5.4,46,0.00,,,0.00,WUHU216HW,2013-04-24 19:45:00,
2013-04-24 12:50:00,64.6,42.7,30.22,North,0,2.5,6.3,45,0.00,,,0.00,WUHU216HW,2013-04-24 19:50:00,
2013-04-24 12:55:00,64.8,42.2,30.22,NNW,338,1.3,6.3,44,0.00,,,0.00,WUHU216HW,2013-04-24 19:55:00,
2013-04-24 13:00:00,64.8,42.2,30.22,WSW,248,1.1,5.6,44,0.00,,,0.00,WUHU216HW,2013-04-24 20:00:00,
2013-04-24 13:05:00,65.2,42.6,30.22,North,0,1.6,9.6,44,0.00,,,0.00,WUHU216HW,2013-04-24 20:05:00,
2013-04-24 13:10:00,65.2,42.0,30.21,NE,45,3.4,9.6,43,0.00,,,0.00,WUHU216HW,2013-04-24 20:10:00,
2013-04-24 13:15:00,65.2,40.9,30.21,NE,45,6.3,7.6,41,0.00,,,0.00,WUHU216HW,2013-04-24 20:15:00,
2013-04-24 13:20:00,65.3,42.2,30.21,NE,45,4.7,6.7,43,0.00,,,0.00,WUHU216HW,2013-04-24 20:20:00,
2013-04-24 13:25:00,65.7,41.3,30.20,NNE,23,4.3,6.3,41,0.00,,,0.00,WUHU216HW,2013-04-24 20:25:00,
2013-04-24 13:30:00,65.5,41.8,30.20,NE,45,4.7,5.8,42,0.00,,,0.00,WUHU216HW,2013-04-24 20:30:00,
2013-04-24 13:35:00,65.5,41.1,30.20,ENE,68,3.6,6.9,41,0.00,,,0.00,WUHU216HW,2013-04-24 20:35:00,
2013-04-24 13:40:00,65.9,42.7,30.20,NNE,23,5.4,6.9,43,0.00,,,0.00,WUHU216HW,2013-04-24 20:40:00,
2013-04-24 13:45:00,65.5,42.3,30.20,NNE,23,1.1,5.8,43,0.00,,,0.00,WUHU216HW,2013-04-24 20:45:00,
2013-04-24 13:50:00,65.2,42.6,30.20,North,0,1.8,5.6,44,0.00,,,0.00,WUHU216HW,2013-04-24 20:50:00,
2013-04-24 13:55:00,65.5,40.6,30.20,East,90,3.6,5.6,40,0.00,,,0.00,WUHU216HW,2013-04-24 20:55:00,
2013-04-24 14:00:00,64.8,41.0,30.20,NNW,338,0.7,5.4,42,0.00,,,0.00,WUHU216HW,2013-04-24 21:00:00,
2013-04-24 14:05:00,64.8,41.0,30.20,NE,45,1.1,4.7,42,0.00,,,0.00,WUHU216HW,2013-04-24 21:05:00,
2013-04-24 14:10:00,65.2,42.0,30.19,North,0,3.1,4.5,43,0.00,,,0.00,WUHU216HW,2013-04-24 21:10:00,
2013-04-24 14:15:00,65.5,41.1,30.19,NNE,23,1.1,5.1,41,0.00,,,0.00,WUHU216HW,2013-04-24 21:15:00,
2013-04-24 14:20:00,65.7,40.1,30.19,NNW,338,2.7,6.3,39,0.00,,,0.00,WUHU216HW,2013-04-24 21:20:00,
2013-04-24 14:25:00,65.7,41.3,30.19,ENE,68,2.9,6.3,41,0.00,,,0.00,WUHU216HW,2013-04-24 21:25:00,
2013-04-24 14:30:00,65.7,43.1,30.19,ENE,68,3.4,5.6,44,0.00,,,0.00,WUHU216HW,2013-04-24 21:30:00,
2013-04-24 14:35:00,66.2,43.0,30.19,ENE,68,4.9,5.6,43,0.00,,,0.00,WUHU216HW,2013-04-24 21:35:00,
2013-04-24 14:40:00,66.1,41.7,30.18,NNE,23,2.2,6.9,41,0.00,,,0.00,WUHU216HW,2013-04-24 21:40:00,
2013-04-24 14:45:00,66.4,39.3,30.18,NE,45,5.6,6.9,37,0.00,,,0.00,WUHU216HW,2013-04-24 21:45:00,
2013-04-24 14:50:00,66.8,40.2,30.17,NNE,23,2.7,7.2,38,0.00,,,0.00,WUHU216HW,2013-04-24 21:50:00,
2013-04-24 14:55:00,67.3,40.8,30.17,ENE,68,1.6,7.2,38,0.00,,,0.00,WUHU216HW,2013-04-24 21:55:00,
2013-04-24 15:00:00,67.5,38.0,30.17,NE,45,5.8,6.3,34,0.00,,,0.00,WUHU216HW,2013-04-24 22:00:00,
2013-04-24 15:05:00,67.3,37.8,30.17,North,0,2.2,6.3,34,0.00,,,0.00,WUHU216HW,2013-04-24 22:05:00,
2013-04-24 15:10:00,67.5,35.7,30.17,North,0,5.4,6.3,31,0.00,,,0.00,WUHU216HW,2013-04-24 22:10:00,
2013-04-24 15:15:00,67.5,37.3,30.17,East,90,1.1,6.7,33,0.00,,,0.00,WUHU216HW,2013-04-24 22:15:00,
2013-04-24 15:20:00,67.5,37.3,30.17,ESE,113,1.1,6.7,33,0.00,,,0.00,WUHU216HW,2013-04-24 22:20:00,
2013-04-24 15:25:00,67.3,37.8,30.16,ENE,68,2.0,5.6,34,0.00,,,0.00,WUHU216HW,2013-04-24 22:25:00,
2013-04-24 15:30:00,67.5,38.7,30.16,SSW,203,2.2,4.0,35,0.00,,,0.00,WUHU216HW,2013-04-24 22:30:00,
2013-04-24 15:35:00,67.5,36.5,30.16,NNE,23,4.9,5.1,32,0.00,,,0.00,WUHU216HW,2013-04-24 22:35:00,
2013-04-24 15:40:00,67.7,38.1,30.15,North,0,2.0,5.1,34,0.00,,,0.00,WUHU216HW,2013-04-24 22:40:00,
2013-04-24 15:45:00,68.2,37.1,30.15,North,0,6.9,6.9,32,0.00,,,0.00,WUHU216HW,2013-04-24 22:45:00,
2013-04-24 15:50:00,68.4,34.8,30.15,SE,135,2.7,6.9,29,0.00,,,0.00,WUHU216HW,2013-04-24 22:50:00,
2013-04-24 15:55:00,68.6,35.9,30.15,North,0,2.5,6.9,30,0.00,,,0.00,WUHU216HW,2013-04-24 22:55:00,
2013-04-24 16:00:00,68.6,37.5,30.15,ESE,113,2.0,6.5,32,0.00,,,0.00,WUHU216HW,2013-04-24 23:00:00,
2013-04-24 16:05:00,68.6,37.5,30.14,WNW,293,3.4,4.0,32,0.00,,,0.00,WUHU216HW,2013-04-24 23:05:00,
2013-04-24 16:10:00,68.6,34.9,30.15,NNE,23,6.5,6.5,29,0.00,,,0.00,WUHU216HW,2013-04-24 23:10:00,
2013-04-24 16:15:00,68.0,33.5,30.14,ENE,68,1.8,6.5,28,0.00,,,0.00,WUHU216HW,2013-04-24 23:15:00,
2013-04-24 16:20:00,67.9,33.3,30.14,ENE,68,4.7,6.5,28,0.00,,,0.00,WUHU216HW,2013-04-24 23:20:00,
2013-04-24 16:25:00,67.3,32.9,30.13,ENE,68,1.8,6.5,28,0.00,,,0.00,WUHU216HW,2013-04-24 23:25:00,
2013-04-24 16:30:00,67.0,34.6,30.13,SSW,203,0.4,6.5,30,0.00,,,0.00,WUHU216HW,2013-04-24 23:30:00,
2013-04-24 16:35:00,66.8,33.5,30.13,East,90,2.0,5.4,29,0.00,,,0.00,WUHU216HW,2013-04-24 23:35:00,
2013-04-24 16:40:00,66.8,34.5,30.12,North,0,1.8,5.4,30,0.00,,,0.00,WUHU216HW,2013-04-24 23:40:00,
2013-04-24 16:45:00,66.6,34.3,30.12,NE,45,2.5,5.4,30,0.00,,,0.00,WUHU216HW,2013-04-24 23:45:00,
2013-04-24 16:50:00,66.4,34.2,30.12,North,0,1.6,4.0,30,0.00,,,0.00,WUHU216HW,2013-04-24 23:50:00,
2013-04-24 16:55:00,66.4,34.9,30.11,NW,315,4.7,5.4,31,0.00,,,0.00,WUHU216HW,2013-04-24 23:55:00,
2013-04-24 17:00:00,66.6,35.7,30.11,East,90,1.1,5.4,32,0.00,,,0.00,WUHU216HW,2013-04-25 00:00:00,
2013-04-24 17:05:00,66.4,34.9,30.11,NNE,23,2.0,4.7,31,0.00,,,0.00,WUHU216HW,2013-04-25 00:05:00,
2013-04-24 17:10:00,66.2,35.5,30.11,NE,45,2.2,4.5,32,0.00,,,0.00,WUHU216HW,2013-04-25 00:10:00,
2013-04-24 17:15:00,65.9,35.8,30.10,ENE,68,0.9,4.5,33,0.00,,,0.00,WUHU216HW,2013-04-25 00:15:00,
2013-04-24 17:20:00,65.5,34.1,30.10,NE,45,1.1,5.6,31,0.00,,,0.00,WUHU216HW,2013-04-25 00:20:00,
2013-04-24 17:25:00,65.3,34.7,30.10,ENE,68,1.3,5.6,32,0.00,,,0.00,WUHU216HW,2013-04-25 00:25:00,
2013-04-24 17:30:00,65.3,34.7,30.10,ENE,68,2.2,4.5,32,0.00,,,0.00,WUHU216HW,2013-04-25 00:30:00,
2013-04-24 17:35:00,65.3,35.4,30.10,SE,135,0.4,3.4,33,0.00,,,0.00,WUHU216HW,2013-04-25 00:35:00,
2013-04-24 17:40:00,65.3,36.1,30.10,ENE,68,0.9,3.4,34,0.00,,,0.00,WUHU216HW,2013-04-25 00:40:00,
2013-04-24 17:45:00,65.3,36.1,30.10,North,0,1.6,4.7,34,0.00,,,0.00,WUHU216HW,2013-04-25 00:45:00,
2013-04-24 17:50:00,65.3,35.4,30.10,ESE,113,0.9,6.5,33,0.00,,,0.00,WUHU216HW,2013-04-25 00:50:00,
2013-04-24 17:55:00,65.2,34.5,30.10,NNE,23,2.9,6.5,32,0.00,,,0.00,WUHU216HW,2013-04-25 00:55:00,
2013-04-24 18:00:00,64.8,34.9,30.10,NNE,23,3.4,4.3,33,0.00,,,0.00,WUHU216HW,2013-04-25 01:00:00,
2013-04-24 18:05:00,64.6,35.5,30.10,ESE,113,0.7,3.8,34,0.00,,,0.00,WUHU216HW,2013-04-25 01:05:00,
2013-04-24 18:10:00,64.6,35.5,30.10,NNW,338,2.2,4.7,34,0.00,,,0.00,WUHU216HW,2013-04-25 01:10:00,
2013-04-24 18:15:00,65.0,35.7,30.10,NNE,23,2.5,4.7,34,0.00,,,0.00,WUHU216HW,2013-04-25 01:15:00,
2013-04-24 18:20:00,64.8,35.7,30.09,NE,45,2.2,3.8,34,0.00,,,0.00,WUHU216HW,2013-04-25 01:20:00,
2013-04-24 18:25:00,64.8,36.4,30.09,ENE,68,0.0,3.6,35,0.00,,,0.00,WUHU216HW,2013-04-25 01:25:00,
2013-04-24 18:30:00,65.0,35.7,30.09,East,90,1.8,3.4,34,0.00,,,0.00,WUHU216HW,2013-04-25 01:30:00,
2013-04-24 18:35:00,65.3,38.3,30.09,NE,45,0.4,2.5,37,0.00,,,0.00,WUHU216HW,2013-04-25 01:35:00,
2013-04-24 18:40:00,65.3,37.5,30.09,East,90,1.8,2.0,36,0.00,,,0.00,WUHU216HW,2013-04-25 01:40:00,
2013-04-24 18:45:00,65.0,37.2,30.09,ESE,113,0.4,3.1,36,0.00,,,0.00,WUHU216HW,2013-04-25 01:45:00,
2013-04-24 18:50:00,64.6,36.9,30.09,North,0,1.8,3.8,36,0.00,,,0.00,WUHU216HW,2013-04-25 01:50:00,
2013-04-24 18:55:00,64.3,36.5,30.08,ENE,68,0.0,5.1,36,0.00,,,0.00,WUHU216HW,2013-04-25 01:55:00,
2013-04-24 19:00:00,64.4,36.7,30.08,North,0,0.4,5.1,36,0.00,,,0.00,WUHU216HW,2013-04-25 02:00:00,
2013-04-24 19:05:00,63.9,37.0,30.08,NE,45,1.1,3.4,37,0.00,,,0.00,WUHU216HW,2013-04-25 02:05:00,
2013-04-24 19:10:00,63.5,36.6,30.09,West,270,0.4,3.4,37,0.00,,,0.00,WUHU216HW,2013-04-25 02:10:00,
2013-04-24 19:15:00,63.0,36.9,30.08,North,0,1.8,2.0,38,0.00,,,0.00,WUHU216HW,2013-04-25 02:15:00,
2013-04-24 19:20:00,62.8,37.5,30.08,ENE,68,0.4,1.8,39,0.00,,,0.00,WUHU216HW,2013-04-25 02:20:00,
2013-04-24 19:25:00,62.5,37.1,30.08,NE,45,0.2,2.9,39,0.00,,,0.00,WUHU216HW,2013-04-25 02:25:00,
2013-04-24 19:30:00,62.3,37.6,30.08,SE,135,0.4,2.9,40,0.00,,,0.00,WUHU216HW,2013-04-25 02:30:00,
2013-04-24 19:35:00,62.3,37.6,30.08,SE,135,0.0,1.8,40,0.00,,,0.00,WUHU216HW,2013-04-25 02:35:00,
2013-04-24 19:40:00,62.1,37.5,30.07,NNE,23,1.1,1.1,40,0.00,,,0.00,WUHU216HW,2013-04-25 02:40:00,
2013-04-24 19:45:00,61.9,37.9,30.07,NNW,338,0.0,1.3,41,0.00,,,0.00,WUHU216HW,2013-04-25 02:45:00,
2013-04-24 19:50:00,61.6,37.6,30.07,ESE,113,0.0,1.3,41,0.00,,,0.00,WUHU216HW,2013-04-25 02:50:00,
2013-04-24 19:55:00,61.4,37.5,30.07,West,270,0.0,1.1,41,0.00,,,0.00,WUHU216HW,2013-04-25 02:55:00,
2013-04-24 20:00:00,61.2,37.8,30.06,NE,45,0.0,1.1,42,0.00,,,0.00,WUHU216HW,2013-04-25 03:00:00,
2013-04-24 20:05:00,61.0,37.7,30.06,ENE,68,0.4,1.1,42,0.00,,,0.00,WUHU216HW,2013-04-25 03:05:00,
2013-04-24 20:10:00,60.7,37.9,30.06,NNW,338,0.0,1.3,43,0.00,,,0.00,WUHU216HW,2013-04-25 03:10:00,
2013-04-24 20:15:00,60.5,37.8,30.06,NNW,338,0.0,1.3,43,0.00,,,0.00,WUHU216HW,2013-04-25 03:15:00,
2013-04-24 20:20:00,60.1,37.4,30.06,East,90,0.7,1.1,43,0.00,,,0.00,WUHU216HW,2013-04-25 03:20:00,
2013-04-24 20:25:00,59.9,37.3,30.06,NNW,338,0.4,2.7,43,0.00,,,0.00,WUHU216HW,2013-04-25 03:25:00,
2013-04-24 20:30:00,59.8,37.1,30.06,NW,315,0.0,2.7,43,0.00,,,0.00,WUHU216HW,2013-04-25 03:30:00,
2013-04-24 20:35:00,59.6,37.5,30.06,ESE,113,1.1,1.1,44,0.00,,,0.00,WUHU216HW,2013-04-25 03:35:00,
2013-04-24 20:40:00,59.4,37.4,30.06,North,0,0.0,1.1,44,0.00,,,0.00,WUHU216HW,2013-04-25 03:40:00,
2013-04-24 20:45:00,59.0,37.1,30.06,WSW,248,0.0,1.1,44,0.00,,,0.00,WUHU216HW,2013-04-25 03:45:00,
2013-04-24 20:50:00,58.7,37.3,30.06,WSW,248,0.7,1.1,45,0.00,,,0.00,WUHU216HW,2013-04-25 03:50:00,
2013-04-24 20:55:00,58.5,37.7,30.06,NE,45,0.0,1.1,46,0.00,,,0.00,WUHU216HW,2013-04-25 03:55:00,
2013-04-24 21:00:00,58.0,37.3,30.06,NNE,23,0.9,0.9,46,0.00,,,0.00,WUHU216HW,2013-04-25 04:00:00,
2013-04-24 21:01:00,58.0,37.3,30.06,NNE,23,0.0,0.9,46,0.00,,,0.00,WUHU216HW,2013-04-25 04:01:00,
2013-04-24 21:06:00,57.6,37.4,30.06,NW,315,0.4,1.3,47,0.00,,,0.00,WUHU216HW,2013-04-25 04:06:00,
2013-04-24 21:11:00,57.1,37.5,30.07,WNW,293,1.1,1.8,48,0.00,,,0.00,WUHU216HW,2013-04-25 04:11:00,
2013-04-24 21:16:00,56.5,37.6,30.06,WSW,248,1.1,1.8,49,0.00,,,0.00,WUHU216HW,2013-04-25 04:16:00,
2013-04-24 21:21:00,56.3,37.5,30.06,North,0,0.2,1.8,49,0.00,,,0.00,WUHU216HW,2013-04-25 04:21:00,
2013-04-24 21:26:00,56.2,37.3,30.06,West,270,0.7,1.8,49,0.00,,,0.00,WUHU216HW,2013-04-25 04:26:00,
2013-04-24 21:31:00,56.2,36.6,30.06,SW,225,0.0,1.1,48,0.00,,,0.00,WUHU216HW,2013-04-25 04:31:00,
2013-04-24 21:36:00,56.2,36.6,30.06,SW,225,0.4,1.1,48,0.00,,,0.00,WUHU216HW,2013-04-25 04:36:00,
2013-04-24 21:41:00,55.8,36.4,30.05,West,270,0.7,1.1,48,0.00,,,0.00,WUHU216HW,2013-04-25 04:41:00,
2013-04-24 21:46:00,55.8,36.9,30.06,West,270,0.7,1.1,49,0.00,,,0.00,WUHU216HW,2013-04-25 04:46:00,
2013-04-24 21:51:00,55.4,36.6,30.06,West,270,0.0,1.3,49,0.00,,,0.00,WUHU216HW,2013-04-25 04:51:00,
2013-04-24 21:56:00,55.1,36.2,30.06,NE,45,0.2,1.3,49,0.00,,,0.00,WUHU216HW,2013-04-25 04:56:00,
2013-04-24 22:01:00,55.1,36.2,30.06,NE,45,0.0,1.3,49,0.00,,,0.00,WUHU216HW,2013-04-25 05:01:00,
2013-04-24 22:06:00,55.1,36.2,30.06,NNW,338,0.4,2.0,49,0.00,,,0.00,WUHU216HW,2013-04-25 05:06:00,
2013-04-24 22:11:00,54.7,35.9,30.05,West,270,0.0,2.0,49,0.00,,,0.00,WUHU216HW,2013-04-25 05:11:00,
2013-04-24 22:16:00,54.7,35.9,30.06,NNE,23,0.0,1.1,49,0.00,,,0.00,WUHU216HW,2013-04-25 05:16:00,
2013-04-24 22:21:00,54.7,35.9,30.05,ENE,68,0.0,1.1,49,0.00,,,0.00,WUHU216HW,2013-04-25 05:21:00,
2013-04-24 22:26:00,54.5,35.7,30.05,NNE,23,1.1,1.8,49,0.00,,,0.00,WUHU216HW,2013-04-25 05:26:00,
2013-04-24 22:31:00,54.7,35.9,30.05,SW,225,0.7,1.8,49,0.00,,,0.00,WUHU216HW,2013-04-25 05:31:00,
2013-04-24 22:36:00,54.7,35.9,30.05,North,0,0.4,1.6,49,0.00,,,0.00,WUHU216HW,2013-04-25 05:36:00,
2013-04-24 22:41:00,54.7,35.9,30.05,ESE,113,0.0,1.6,49,0.00,,,0.00,WUHU216HW,2013-04-25 05:41:00,
2013-04-24 22:46:00,54.7,35.9,30.05,East,90,0.2,1.3,49,0.00,,,0.00,WUHU216HW,2013-04-25 05:46:00,
2013-04-24 22:51:00,54.7,35.9,30.05,ESE,113,1.1,1.1,49,0.00,,,0.00,WUHU216HW,2013-04-25 05:51:00,
2013-04-24 22:56:00,54.7,35.9,30.05,ENE,68,0.7,1.1,49,0.00,,,0.00,WUHU216HW,2013-04-25 05:56:00,
2013-04-24 23:01:00,54.5,35.2,30.05,ENE,68,0.7,1.1,48,0.00,,,0.00,WUHU216HW,2013-04-25 06:01:00,
2013-04-24 23:06:00,54.5,35.2,30.04,East,90,0.2,1.1,48,0.00,,,0.00,WUHU216HW,2013-04-25 06:06:00,
2013-04-24 23:11:00,54.4,34.5,30.05,East,90,0.2,1.3,47,0.00,,,0.00,WUHU216HW,2013-04-25 06:11:00,
2013-04-24 23:16:00,54.4,34.5,30.04,SE,135,0.4,1.3,47,0.00,,,0.00,WUHU216HW,2013-04-25 06:16:00,
2013-04-24 23:21:00,54.4,34.5,30.04,NE,45,0.0,1.1,47,0.00,,,0.00,WUHU216HW,2013-04-25 06:21:00,
2013-04-24 23:26:00,54.4,34.5,30.04,NE,45,0.0,1.1,47,0.00,,,0.00,WUHU216HW,2013-04-25 06:26:00,
2013-04-24 23:31:00,54.4,34.5,30.04,ESE,113,0.4,1.1,47,0.00,,,0.00,WUHU216HW,2013-04-25 06:31:00,
2013-04-24 23:36:00,54.4,34.5,30.04,NE,45,0.4,2.2,47,0.00,,,0.00,WUHU216HW,2013-04-25 06:36:00,
2013-04-24 23:41:00,54.2,34.3,30.04,ESE,113,0.2,2.2,47,0.00,,,0.00,WUHU216HW,2013-04-25 06:41:00,
2013-04-24 23:46:00,54.2,34.3,30.04,SE,135,0.0,0.9,47,0.00,,,0.00,WUHU216HW,2013-04-25 06:46:00,
2013-04-24 23:51:00,54.2,34.8,30.04,NNE,23,0.4,2.2,48,0.00,,,0.00,WUHU216HW,2013-04-25 06:51:00,
2013-04-24 23:56:00,54.0,34.1,30.04,ENE,68,1.1,2.2,47,0.00,,,0.00,WUHU216HW,2013-04-25 06:56:00,